createdAt,value
2023-03-12T00:00:02.021Z,6.57
2023-03-12T00:02:30.721Z,4.38
2023-03-12T00:04:58.460Z,5.25
2023-03-12T00:07:25.092Z,8.55
2023-03-12T00:09:51.791Z,4.65
2023-03-12T00:12:18.425Z,8.77
2023-03-12T00:14:45.064Z,13.70
2023-03-12T00:17:11.816Z,9.73
2023-03-12T00:19:38.499Z,9.65
2023-03-12T00:22:05.283Z,7.43
2023-03-12T00:24:32.025Z,11.25
2023-03-12T00:26:58.657Z,2.50
2023-03-12T00:29:25.401Z,2.72
2023-03-12T00:31:52.321Z,2.50
2023-03-12T00:34:18.976Z,3.45
2023-03-12T00:36:45.659Z,2.20
2023-03-12T00:39:12.612Z,2.05
2023-03-12T00:41:39.245Z,1.90
2023-03-12T00:44:06.832Z,1.90
2023-03-12T00:46:33.834Z,2.08
2023-03-12T00:49:00.551Z,2.30
2023-03-12T00:51:27.271Z,1.80
2023-03-12T00:53:55.995Z,2.00
2023-03-12T00:56:22.768Z,2.50
2023-03-12T00:58:49.391Z,2.40
2023-03-12T01:01:16.163Z,1.60
2023-03-12T01:03:42.928Z,2.40
2023-03-12T01:06:09.719Z,3.00
2023-03-12T01:08:36.819Z,2.28
2023-03-12T01:11:03.891Z,3.40
2023-03-12T01:13:30.994Z,2.10
2023-03-12T01:15:57.841Z,1.33
2023-03-12T01:18:24.600Z,1.30
2023-03-12T01:20:51.440Z,2.15
2023-03-12T01:23:18.203Z,2.58
2023-03-12T01:25:44.916Z,2.53
2023-03-12T01:28:11.586Z,1.52
2023-03-12T01:30:38.372Z,2.95
2023-03-12T01:33:05.227Z,2.88
2023-03-12T01:35:36.604Z,2.97
2023-03-12T01:38:03.454Z,2.75
2023-03-12T01:40:34.804Z,1.02
2023-03-12T01:43:22.159Z,1.65
2023-03-12T01:46:10.676Z,4.90
2023-03-12T01:48:44.504Z,6.25
2023-03-12T01:51:13.730Z,9.32
2023-03-12T01:53:41.957Z,1.23
2023-03-12T01:56:09.961Z,3.58
2023-03-12T01:58:38.678Z,1.60
2023-03-12T02:01:05.586Z,1.70
2023-03-12T02:03:33.370Z,4.93
2023-03-12T02:06:08.912Z,3.78
2023-03-12T02:08:41.990Z,16.08
2023-03-12T02:11:10.076Z,5.07
2023-03-12T02:13:37.511Z,2.28
2023-03-12T02:16:04.707Z,1.30
2023-03-12T02:18:31.557Z,2.78
2023-03-12T02:21:08.202Z,3.83
2023-03-12T02:23:38.458Z,5.65
2023-03-12T02:26:17.668Z,9.82
2023-03-12T02:28:46.012Z,4.55
2023-03-12T02:31:15.393Z,4.13
2023-03-12T02:33:42.233Z,5.30
2023-03-12T02:36:09.442Z,3.38
2023-03-12T02:38:44.159Z,1.65
2023-03-12T02:41:16.310Z,1.50
2023-03-12T02:43:45.928Z,0.90
2023-03-12T02:46:13.818Z,1.10
2023-03-12T02:48:40.668Z,0.80
2023-03-12T02:51:11.096Z,2.17
2023-03-12T02:53:37.853Z,1.30
2023-03-12T02:56:04.911Z,1.13
2023-03-12T02:58:31.639Z,0.80
2023-03-12T03:00:58.642Z,1.40
2023-03-12T03:03:25.343Z,1.20
2023-03-12T03:05:52.320Z,1.50
2023-03-12T03:08:19.114Z,2.03
2023-03-12T03:10:46.035Z,1.40
2023-03-12T03:13:12.781Z,1.40
2023-03-12T03:15:40.046Z,2.67
2023-03-12T03:18:06.923Z,2.40
2023-03-12T03:20:33.704Z,4.47
2023-03-12T03:23:00.664Z,2.33
2023-03-12T03:25:27.392Z,2.35
2023-03-12T03:27:54.312Z,2.37
2023-03-12T03:30:21.399Z,2.20
2023-03-12T03:32:50.026Z,1.20
2023-03-12T03:35:17.478Z,0.80
2023-03-12T03:37:44.152Z,2.00
2023-03-12T03:40:12.343Z,2.10
2023-03-12T03:42:40.371Z,2.90
2023-03-12T03:45:08.310Z,3.10
2023-03-12T03:47:35.493Z,1.50
2023-03-12T03:50:02.516Z,2.65
2023-03-12T03:52:29.193Z,1.15
2023-03-12T03:54:57.108Z,2.17
2023-03-12T03:57:23.989Z,1.13
2023-03-12T03:59:50.747Z,1.23
2023-03-12T04:02:18.618Z,1.05
2023-03-12T04:04:45.346Z,1.00
2023-03-12T04:07:12.348Z,1.23
2023-03-12T04:09:39.063Z,0.70
2023-03-12T04:12:05.982Z,0.93
2023-03-12T04:14:32.656Z,0.90
2023-03-12T04:16:59.301Z,1.53
2023-03-12T04:19:26.119Z,1.70
2023-03-12T04:21:52.760Z,2.60
2023-03-12T04:24:20.492Z,6.43
2023-03-12T04:26:47.186Z,3.45
2023-03-12T04:29:14.084Z,1.63
2023-03-12T04:31:41.170Z,2.88
2023-03-12T04:34:07.949Z,2.57
2023-03-12T04:36:34.777Z,2.63
2023-03-12T04:39:01.749Z,1.38
2023-03-12T04:41:28.630Z,2.77
2023-03-12T04:43:55.436Z,2.00
2023-03-12T04:46:22.205Z,7.25
2023-03-12T04:48:49.127Z,6.27
2023-03-12T04:51:16.130Z,6.13
2023-03-12T04:53:42.894Z,3.00
2023-03-12T04:56:09.870Z,2.10
2023-03-12T04:58:36.705Z,1.60
2023-03-12T05:01:04.062Z,2.40
2023-03-12T05:03:31.259Z,2.17
2023-03-12T05:05:58.084Z,1.90
2023-03-12T05:08:24.856Z,2.20
2023-03-12T05:10:51.751Z,3.63
2023-03-12T05:13:21.527Z,2.75
2023-03-12T05:15:50.887Z,3.15
2023-03-12T05:18:18.054Z,3.67
2023-03-12T05:20:44.745Z,2.90
2023-03-12T05:23:11.436Z,2.57
2023-03-12T05:25:41.609Z,3.77
2023-03-12T05:28:08.300Z,4.07
2023-03-12T05:30:35.049Z,4.37
2023-03-12T05:33:01.800Z,3.57
2023-03-12T05:35:28.479Z,4.93
2023-03-12T05:37:55.145Z,5.57
2023-03-12T05:40:21.991Z,3.50
2023-03-12T05:42:48.637Z,2.30
2023-03-12T05:45:15.339Z,3.63
2023-03-12T05:47:43.059Z,2.00
2023-03-12T05:50:11.394Z,2.57
2023-03-12T05:52:38.091Z,2.40
2023-03-12T05:55:05.240Z,1.63
2023-03-12T05:57:31.895Z,3.88
2023-03-12T05:59:58.656Z,3.60
2023-03-12T06:02:25.687Z,2.92
2023-03-12T06:04:52.338Z,2.87
2023-03-12T06:07:20.004Z,3.90
2023-03-12T06:09:46.712Z,4.63
2023-03-12T06:12:13.374Z,3.22
2023-03-12T06:14:40.059Z,1.70
2023-03-12T06:17:06.780Z,1.75
2023-03-12T06:19:33.548Z,3.08
2023-03-12T06:22:00.531Z,2.45
2023-03-12T06:24:27.281Z,2.20
2023-03-12T06:26:54.051Z,5.90
2023-03-12T06:29:20.724Z,4.00
2023-03-12T06:31:48.376Z,3.42
2023-03-12T06:34:16.887Z,4.55
2023-03-12T06:36:44.166Z,3.58
2023-03-12T06:39:10.852Z,2.47
2023-03-12T06:41:37.613Z,2.72
2023-03-12T06:44:09.551Z,3.13
2023-03-12T06:46:37.094Z,2.20
2023-03-12T06:49:04.171Z,2.75
2023-03-12T06:51:30.866Z,2.90
2023-03-12T06:53:57.626Z,2.58
2023-03-12T06:56:24.316Z,2.95
2023-03-12T06:58:51.000Z,2.20
2023-03-12T07:01:17.718Z,2.83
2023-03-12T07:03:44.478Z,3.10
2023-03-12T07:06:19.344Z,2.45
2023-03-12T07:08:46.497Z,4.32
2023-03-12T07:11:13.927Z,3.58
2023-03-12T07:13:41.616Z,2.10
2023-03-12T07:16:08.818Z,3.90
2023-03-12T07:18:35.522Z,4.43
2023-03-12T07:21:02.302Z,1.70
2023-03-12T07:23:29.098Z,1.50
2023-03-12T07:25:56.036Z,2.78
2023-03-12T07:28:22.994Z,2.20
2023-03-12T07:30:52.852Z,2.20
2023-03-12T07:33:21.626Z,1.50
2023-03-12T07:35:51.470Z,1.88
2023-03-12T07:38:18.535Z,2.72
2023-03-12T07:40:54.108Z,2.30
2023-03-12T07:43:21.860Z,2.20
2023-03-12T07:45:49.684Z,1.48
2023-03-12T07:48:19.595Z,2.03
2023-03-12T07:50:46.398Z,2.13
2023-03-12T07:53:13.155Z,1.83
2023-03-12T07:55:40.028Z,1.05
2023-03-12T07:58:06.956Z,2.42
2023-03-12T08:00:33.703Z,1.50
2023-03-12T08:03:00.585Z,2.00
2023-03-12T08:05:35.399Z,1.50
2023-03-12T08:08:02.311Z,1.50
2023-03-12T08:10:29.193Z,1.30
2023-03-12T08:12:56.219Z,2.03
2023-03-12T08:15:23.027Z,1.50
2023-03-12T08:17:49.740Z,1.45
2023-03-12T08:20:17.622Z,1.15
2023-03-12T08:22:45.460Z,1.35
2023-03-12T08:25:12.546Z,1.13
2023-03-12T08:27:39.460Z,1.05
2023-03-12T08:30:07.040Z,1.80
2023-03-12T08:32:33.984Z,1.85
2023-03-12T08:35:00.960Z,1.50
2023-03-12T08:37:27.615Z,1.95
2023-03-12T08:39:54.683Z,1.65
2023-03-12T08:42:21.488Z,2.72
2023-03-12T08:44:48.192Z,2.40
2023-03-12T08:47:15.187Z,2.40
2023-03-12T08:49:42.046Z,2.28
2023-03-12T08:52:08.732Z,1.95
2023-03-12T08:54:35.575Z,1.30
2023-03-12T08:57:03.417Z,0.90
2023-03-12T08:59:30.176Z,7.28
2023-03-12T09:01:57.914Z,3.20
2023-03-12T09:04:24.722Z,3.55
2023-03-12T09:06:52.541Z,1.63
2023-03-12T09:09:19.230Z,1.60
2023-03-12T09:11:45.946Z,1.33
2023-03-12T09:14:57.454Z,1.70
2023-03-12T09:16:59.455Z,2.38
2023-03-12T09:19:26.358Z,1.60
2023-03-12T09:21:53.073Z,1.90
2023-03-12T09:24:20.004Z,1.20
2023-03-12T09:26:47.689Z,1.50
2023-03-12T09:29:14.360Z,1.38
2023-03-12T09:31:41.324Z,2.10
2023-03-12T09:34:08.027Z,1.88
2023-03-12T09:36:34.952Z,0.80
2023-03-12T09:39:03.082Z,1.23
2023-03-12T09:41:34.587Z,4.93
2023-03-12T09:44:32.705Z,2.63
2023-03-12T09:47:05.404Z,5.13
2023-03-12T09:49:40.703Z,1.30
2023-03-12T09:52:44.550Z,0.98
2023-03-12T09:55:21.494Z,0.82
2023-03-12T09:57:51.357Z,1.52
2023-03-12T10:00:22.847Z,1.00
2023-03-12T10:03:14.092Z,2.75
2023-03-12T10:05:44.359Z,1.92
2023-03-12T10:08:35.308Z,0.90
2023-03-12T10:11:22.286Z,2.05
2023-03-12T10:13:58.077Z,1.00
2023-03-12T10:16:49.333Z,1.95
2023-03-12T10:19:34.049Z,2.15
2023-03-12T10:22:33.119Z,3.15
2023-03-12T10:25:05.635Z,2.05
2023-03-12T10:27:37.198Z,1.60
2023-03-12T10:30:16.630Z,1.90
2023-03-12T10:32:53.867Z,1.60
2023-03-12T10:35:23.280Z,1.13
2023-03-12T10:38:04.876Z,1.20
2023-03-12T10:40:36.681Z,1.00
2023-03-12T10:43:04.953Z,1.20
2023-03-12T10:45:56.694Z,1.98
2023-03-12T10:48:25.551Z,3.65
2023-03-12T10:51:12.565Z,0.80
2023-03-12T10:53:44.724Z,1.20
2023-03-12T10:56:14.441Z,1.00
2023-03-12T10:58:42.361Z,1.77
2023-03-12T11:01:30.432Z,1.00
2023-03-12T11:04:14.851Z,0.90
2023-03-12T11:06:41.660Z,1.10
2023-03-12T11:09:20.721Z,1.98
2023-03-12T11:11:48.717Z,2.03
2023-03-12T11:14:21.662Z,1.10
2023-03-12T11:16:49.622Z,1.50
2023-03-12T11:19:31.569Z,1.42
2023-03-12T11:22:03.403Z,1.25
2023-03-12T11:24:30.633Z,1.30
2023-03-12T11:27:07.667Z,1.00
2023-03-12T11:29:49.234Z,1.00
2023-03-12T11:32:32.605Z,3.58
2023-03-12T11:34:59.835Z,1.00
2023-03-12T11:37:51.421Z,1.90
2023-03-12T11:40:29.370Z,2.78
2023-03-12T11:43:42.819Z,3.03
2023-03-12T11:46:36.855Z,2.08
2023-03-12T11:49:21.580Z,2.45
2023-03-12T11:52:03.563Z,2.90
2023-03-12T11:54:43.848Z,1.50
2023-03-12T11:57:34.445Z,1.27
2023-03-12T12:00:12.856Z,0.65
2023-03-12T12:02:54.738Z,1.15
2023-03-12T12:05:58.827Z,1.85
2023-03-12T12:08:49.258Z,1.70
2023-03-12T12:11:36.064Z,1.70
2023-03-12T12:14:11.472Z,1.70
2023-03-12T12:16:41.122Z,1.75
2023-03-12T12:19:20.228Z,1.60
2023-03-12T12:21:59.694Z,2.00
2023-03-12T12:24:38.552Z,6.47
2023-03-12T12:27:24.526Z,52.72
2023-03-12T12:30:31.884Z,11.13
2023-03-12T12:33:23.940Z,18.27
2023-03-12T12:35:51.063Z,1.50
2023-03-12T12:38:17.679Z,4.10
2023-03-12T12:40:51.561Z,2.85
2023-03-12T12:43:36.806Z,1.70
2023-03-12T12:46:16.135Z,1.95
2023-03-12T12:48:53.636Z,2.92
2023-03-12T12:51:25.630Z,1.40
2023-03-12T12:54:16.876Z,3.05
2023-03-12T12:56:58.041Z,1.13
2023-03-12T12:59:36.818Z,1.58
2023-03-12T13:02:13.425Z,1.90
2023-03-12T13:04:41.240Z,1.88
2023-03-12T13:07:13.658Z,1.08
2023-03-12T13:09:44.212Z,2.55
2023-03-12T13:12:36.284Z,2.97
2023-03-12T13:15:28.501Z,1.83
2023-03-12T13:17:55.193Z,2.53
2023-03-12T13:20:32.813Z,1.70
2023-03-12T13:23:09.495Z,1.63
2023-03-12T13:25:39.172Z,3.05
2023-03-12T13:28:32.534Z,2.00
2023-03-12T13:31:01.179Z,2.30
2023-03-12T13:34:17.324Z,2.65
2023-03-12T13:36:46.428Z,1.90
2023-03-12T13:39:16.120Z,1.75
2023-03-12T13:41:45.809Z,1.90
2023-03-12T13:44:27.914Z,1.40
2023-03-12T13:47:05.916Z,2.03
2023-03-12T13:49:43.801Z,1.50
2023-03-12T13:52:19.720Z,2.53
2023-03-12T13:55:14.166Z,2.03
2023-03-12T13:57:44.932Z,3.42
2023-03-12T14:00:24.479Z,2.75
2023-03-12T14:02:59.918Z,2.55
2023-03-12T14:05:29.126Z,1.90
2023-03-12T14:07:56.162Z,2.45
2023-03-12T14:11:00.450Z,3.25
2023-03-12T14:13:39.224Z,2.92
2023-03-12T14:16:11.005Z,2.70
2023-03-12T14:18:39.415Z,4.05
2023-03-12T14:21:15.999Z,3.13
2023-03-12T14:23:58.407Z,7.57
2023-03-12T14:26:33.107Z,3.42
2023-03-12T14:29:10.811Z,6.28
2023-03-12T14:31:38.854Z,3.75
2023-03-12T14:34:21.114Z,5.38
2023-03-12T14:36:53.443Z,17.95
2023-03-12T14:39:28.109Z,10.32
2023-03-12T14:42:05.129Z,11.45
2023-03-12T14:44:34.125Z,7.25
2023-03-12T14:47:07.664Z,3.72
2023-03-12T14:49:43.016Z,4.82
2023-03-12T14:52:15.130Z,6.82
2023-03-12T14:54:54.118Z,7.90
2023-03-12T14:57:24.667Z,7.38
2023-03-12T14:59:59.267Z,4.68
2023-03-12T15:02:28.259Z,3.53
2023-03-12T15:05:02.211Z,11.57
2023-03-12T15:07:36.126Z,4.45
2023-03-12T15:10:07.938Z,2.80
2023-03-12T15:12:38.036Z,3.47
2023-03-12T15:15:11.974Z,5.05
2023-03-12T15:17:38.890Z,5.18
2023-03-12T15:20:09.782Z,5.28
2023-03-12T15:22:37.790Z,5.18
2023-03-12T15:25:26.950Z,3.60
2023-03-12T15:28:15.714Z,3.85
2023-03-12T15:30:44.051Z,3.85
2023-03-12T15:33:31.048Z,5.07
2023-03-12T15:36:17.686Z,5.68
2023-03-12T15:38:55.514Z,6.70
2023-03-12T15:41:35.680Z,3.70
2023-03-12T15:44:02.968Z,3.35
2023-03-12T15:46:29.944Z,4.97
2023-03-12T15:48:59.266Z,3.22
2023-03-12T15:51:36.901Z,6.75
2023-03-12T15:54:25.146Z,5.32
2023-03-12T15:56:51.943Z,5.47
2023-03-12T15:59:26.020Z,12.52
2023-03-12T16:01:56.326Z,11.15
2023-03-12T16:04:24.037Z,13.70
2023-03-12T16:06:54.624Z,17.35
2023-03-12T16:09:26.574Z,11.73
2023-03-12T16:11:55.877Z,11.27
2023-03-12T16:14:35.257Z,8.43
2023-03-12T16:17:03.087Z,12.43
2023-03-12T16:19:33.759Z,16.40
2023-03-12T16:22:05.575Z,26.77
2023-03-12T16:24:32.217Z,16.50
2023-03-12T16:26:59.359Z,16.42
2023-03-12T16:29:35.784Z,10.73
2023-03-12T16:32:02.936Z,6.00
2023-03-12T16:34:29.651Z,8.93
2023-03-12T16:36:56.735Z,16.92
2023-03-12T16:39:23.899Z,11.52
2023-03-12T16:41:50.627Z,8.57
2023-03-12T16:44:21.452Z,11.35
2023-03-12T16:46:48.407Z,15.70
2023-03-12T16:49:19.691Z,29.83
2023-03-12T16:51:47.883Z,21.48
2023-03-12T16:54:14.615Z,24.25
2023-03-12T16:56:45.030Z,13.10
2023-03-12T16:59:33.327Z,14.35
2023-03-12T17:01:59.956Z,44.22
2023-03-12T17:04:26.701Z,14.88
2023-03-12T17:06:53.415Z,23.70
2023-03-12T17:09:20.091Z,12.80
2023-03-12T17:11:51.324Z,15.38
2023-03-12T17:14:22.263Z,9.50
2023-03-12T17:16:49.903Z,10.02
2023-03-12T17:19:16.865Z,7.78
2023-03-12T17:21:44.368Z,32.97
2023-03-12T17:24:14.110Z,17.15
2023-03-12T17:26:41.611Z,6.60
2023-03-12T17:29:09.108Z,21.35
2023-03-12T17:31:37.588Z,33.65
2023-03-12T17:34:04.688Z,28.90
2023-03-12T17:36:31.631Z,25.38
2023-03-12T17:38:58.332Z,29.30
2023-03-12T17:41:26.971Z,31.00
2023-03-12T17:43:55.421Z,19.67
2023-03-12T17:46:22.185Z,20.05
2023-03-12T17:48:48.981Z,12.85
2023-03-12T17:51:17.313Z,10.18
2023-03-12T17:53:44.247Z,8.80
2023-03-12T17:56:12.729Z,5.80
2023-03-12T17:58:39.575Z,7.15
2023-03-12T18:01:06.206Z,10.18
2023-03-12T18:03:33.214Z,12.80
2023-03-12T18:05:59.886Z,10.80
2023-03-12T18:08:26.563Z,10.05
2023-03-12T18:10:53.306Z,8.60
2023-03-12T18:13:20.040Z,5.88
2023-03-12T18:15:54.062Z,6.40
2023-03-12T18:18:21.177Z,8.48
2023-03-12T18:20:49.089Z,7.20
2023-03-12T18:23:16.819Z,8.07
2023-03-12T18:25:44.163Z,7.72
2023-03-12T18:28:10.853Z,7.78
2023-03-12T18:30:37.628Z,11.68
2023-03-12T18:33:04.281Z,17.77
2023-03-12T18:35:30.973Z,9.05
2023-03-12T18:37:58.382Z,7.07
2023-03-12T18:40:25.740Z,9.25
2023-03-12T18:42:52.384Z,6.90
2023-03-12T18:45:19.092Z,8.73
2023-03-12T18:47:50.168Z,8.43
2023-03-12T18:50:17.519Z,8.23
2023-03-12T18:52:44.309Z,8.02
2023-03-12T18:55:15.319Z,5.38
2023-03-12T18:57:43.164Z,4.32
2023-03-12T19:00:15.515Z,5.90
2023-03-12T19:02:42.525Z,6.95
2023-03-12T19:05:11.105Z,3.72
2023-03-12T19:07:39.184Z,15.30
2023-03-12T19:10:07.608Z,6.30
2023-03-12T19:12:45.412Z,8.07
2023-03-12T19:15:17.625Z,7.70
2023-03-12T19:17:44.355Z,11.10
2023-03-12T19:20:11.971Z,8.67
2023-03-12T19:22:38.677Z,6.10
2023-03-12T19:25:05.954Z,6.65
2023-03-12T19:27:33.971Z,5.78
2023-03-12T19:30:01.005Z,6.43
2023-03-12T19:32:33.348Z,4.43
2023-03-12T19:35:11.006Z,7.07
2023-03-12T19:37:37.850Z,4.83
2023-03-12T19:40:05.961Z,7.23
2023-03-12T19:42:33.148Z,5.40
2023-03-12T19:45:00.067Z,4.37
2023-03-12T19:47:26.861Z,8.90
2023-03-12T19:50:03.750Z,7.20
2023-03-12T19:52:30.455Z,6.87
2023-03-12T19:55:04.747Z,4.90
2023-03-12T19:59:59.158Z,4.37
2023-03-12T20:02:26.539Z,3.93
2023-03-12T20:04:55.458Z,5.80
2023-03-12T20:07:22.343Z,3.80
2023-03-12T20:09:49.230Z,5.50
2023-03-12T20:12:16.001Z,4.10
2023-03-12T20:14:43.983Z,5.23
2023-03-12T20:17:12.263Z,4.00
2023-03-12T20:19:39.577Z,7.33
2023-03-12T20:22:06.899Z,7.13
2023-03-12T20:24:33.686Z,4.87
2023-03-12T20:27:00.619Z,7.93
2023-03-12T20:29:27.554Z,9.70
2023-03-12T20:31:54.292Z,4.87
2023-03-12T20:34:21.126Z,6.23
2023-03-12T20:36:48.044Z,4.10
2023-03-12T20:39:14.850Z,3.80
2023-03-12T20:41:41.624Z,7.13
2023-03-12T20:44:08.504Z,4.87
2023-03-12T20:46:35.192Z,4.37
2023-03-12T20:49:02.324Z,3.77
2023-03-12T20:51:29.072Z,3.80
2023-03-12T20:53:55.720Z,4.77
2023-03-12T20:56:22.531Z,3.20
2023-03-12T20:58:49.235Z,4.80
2023-03-12T21:01:16.338Z,4.20
2023-03-12T21:03:43.093Z,3.73
2023-03-12T21:06:09.705Z,1.93
2023-03-12T21:08:46.362Z,3.77
2023-03-12T21:11:13.093Z,3.10
2023-03-12T21:13:39.916Z,3.83
2023-03-12T21:16:08.026Z,4.10
2023-03-12T21:18:35.316Z,4.10
2023-03-12T21:21:06.348Z,2.87
2023-03-12T21:23:33.646Z,3.73
2023-03-12T21:26:02.516Z,3.90
2023-03-12T21:28:29.892Z,3.33
2023-03-12T21:31:07.584Z,4.40
2023-03-12T21:33:35.215Z,3.20
2023-03-12T21:36:05.734Z,4.40
2023-03-12T21:38:32.441Z,4.60
2023-03-12T21:41:05.203Z,3.40
2023-03-12T21:43:31.885Z,4.00
2023-03-12T21:46:05.035Z,3.80
2023-03-12T21:48:31.886Z,3.23
2023-03-12T21:51:09.455Z,3.30
2023-03-12T21:53:37.315Z,3.87
2023-03-12T21:56:05.955Z,4.13
2023-03-12T21:58:33.950Z,7.53
2023-03-12T22:01:13.621Z,5.00
2023-03-12T22:03:41.863Z,4.40
2023-03-12T22:06:10.157Z,5.23
2023-03-12T22:08:37.381Z,6.70
2023-03-12T22:11:05.203Z,8.47
2023-03-12T22:13:32.180Z,4.00
2023-03-12T22:16:01.577Z,5.10
2023-03-12T22:18:29.080Z,5.47
2023-03-12T22:20:59.897Z,3.93
2023-03-12T22:23:26.588Z,3.60
2023-03-12T22:25:53.580Z,3.30
2023-03-12T22:28:20.958Z,3.83
2023-03-12T22:30:48.252Z,3.63
2023-03-12T22:33:14.986Z,3.97
2023-03-12T22:35:46.178Z,4.03
2023-03-12T22:38:13.078Z,4.73
2023-03-12T22:40:40.501Z,3.90
2023-03-12T22:43:07.307Z,3.90
2023-03-12T22:45:34.051Z,4.73
2023-03-12T22:48:00.811Z,3.47
2023-03-12T22:50:28.269Z,3.30
2023-03-12T22:52:54.994Z,3.93
2023-03-12T22:55:21.684Z,3.80
2023-03-12T22:57:48.651Z,3.40
2023-03-12T23:00:18.918Z,3.33
2023-03-12T23:02:45.666Z,3.20
2023-03-12T23:05:12.376Z,3.30
2023-03-12T23:07:39.052Z,3.87
2023-03-12T23:10:06.763Z,2.90
2023-03-12T23:12:34.867Z,3.40
2023-03-12T23:15:01.740Z,3.87
2023-03-12T23:17:28.384Z,4.10
2023-03-12T23:19:55.028Z,4.13
2023-03-12T23:22:21.779Z,3.30
2023-03-12T23:24:48.510Z,3.50
2023-03-12T23:27:15.263Z,4.17
2023-03-12T23:29:42.038Z,3.20
2023-03-12T23:32:08.767Z,3.03
2023-03-12T23:34:35.484Z,3.63
2023-03-12T23:37:02.355Z,3.23
2023-03-12T23:39:30.251Z,3.20
2023-03-12T23:41:57.753Z,3.00
2023-03-12T23:44:24.932Z,2.90
2023-03-12T23:46:51.642Z,3.00
2023-03-12T23:49:18.443Z,2.80
2023-03-12T23:51:45.866Z,2.87
2023-03-12T23:54:12.581Z,2.80
2023-03-12T23:56:41.097Z,2.83
2023-03-12T23:59:10.487Z,3.00
